sensor_id;sensor_type;location;lat;lon;timestamp;pressure;altitude;pressure_sealevel;temperature;humidity
10840;BME280;5473;42.706;23.328;2023-02-19T00:01:26;27905.78;;;-142.93;100.00
10840;BME280;5473;42.706;23.328;2023-02-19T00:03:55;27703.41;;;-142.93;100.00
10840;BME280;5473;42.706;23.328;2023-02-19T00:06:25;27310.59;;;-142.93;100.00
10840;BME280;5473;42.706;23.328;2023-02-19T00:08:52;26304.97;;;-142.93;100.00
10840;BME280;5473;42.706;23.328;2023-02-19T00:11:20;25289.75;;;-142.93;100.00
10840;BME280;5473;42.706;23.328;2023-02-19T00:13:50;24528.50;;;-142.93;100.00
10840;BME280;5473;42.706;23.328;2023-02-19T00:16:19;24274.81;;;-142.93;100.00
10840;BME280;5473;42.706;23.328;2023-02-19T00:18:46;25289.75;;;-142.93;100.00
10840;BME280;5473;42.706;23.328;2023-02-19T00:21:14;25797.31;;;-142.93;100.00
10840;BME280;5473;42.706;23.328;2023-02-19T00:23:43;25289.75;;;-142.93;100.00
10840;BME280;5473;42.706;23.328;2023-02-19T00:26:11;25035.97;;;-142.93;100.00
10840;BME280;5473;42.706;23.328;2023-02-19T00:28:38;26051.13;;;-142.93;100.00
10840;BME280;5473;42.706;23.328;2023-02-19T00:31:07;26332.72;;;-142.93;100.00
10840;BME280;5473;42.706;23.328;2023-02-19T00:33:34;26558.81;;;-142.93;100.00
10840;BME280;5473;42.706;23.328;2023-02-19T00:36:02;26304.97;;;-142.93;100.00
10840;BME280;5473;42.706;23.328;2023-02-19T00:38:30;27610.16;;;-142.93;100.00
10840;BME280;5473;42.706;23.328;2023-02-19T00:40:58;28062.53;;;-142.93;100.00
10840;BME280;5473;42.706;23.328;2023-02-19T00:43:25;27616.09;;;-142.93;100.00
10840;BME280;5473;42.706;23.328;2023-02-19T00:45:52;29807.13;;;-142.93;100.00
10840;BME280;5473;42.706;23.328;2023-02-19T00:48:19;30577.50;;;-142.93;100.00
10840;BME280;5473;42.706;23.328;2023-02-19T00:50:46;31248.72;;;-142.93;100.00
10840;BME280;5473;42.706;23.328;2023-02-19T00:53:12;31878.38;;;-142.93;100.00
10840;BME280;5473;42.706;23.328;2023-02-19T00:55:39;32772.44;;;-142.93;100.00
10840;BME280;5473;42.706;23.328;2023-02-19T00:58:07;33350.72;;;-142.93;100.00
10840;BME280;5473;42.706;23.328;2023-02-19T01:00:34;33593.19;;;-142.93;100.00
10840;BME280;5473;42.706;23.328;2023-02-19T01:03:01;33628.94;;;-142.93;100.00
10840;BME280;5473;42.706;23.328;2023-02-19T01:05:27;33585.22;;;-142.93;100.00
10840;BME280;5473;42.706;23.328;2023-02-19T01:07:54;32492.28;;;-142.93;100.00
10840;BME280;5473;42.706;23.328;2023-02-19T01:10:21;31808.88;;;-142.93;100.00
10840;BME280;5473;42.706;23.328;2023-02-19T01:12:47;31874.41;;;-142.93;100.00
10840;BME280;5473;42.706;23.328;2023-02-19T01:15:16;31381.81;;;-142.93;100.00
10840;BME280;5473;42.706;23.328;2023-02-19T01:17:42;31137.50;;;-142.93;100.00
10840;BME280;5473;42.706;23.328;2023-02-19T01:20:09;29652.28;;;-142.93;100.00
10840;BME280;5473;42.706;23.328;2023-02-19T01:22:36;27124.13;;;-142.93;100.00
10840;BME280;5473;42.706;23.328;2023-02-19T01:25:03;24528.50;;;-142.93;100.00
10840;BME280;5473;42.706;23.328;2023-02-19T01:27:30;23260.19;;;-142.93;100.00
10840;BME280;5473;42.706;23.328;2023-02-19T01:29:56;21738.84;;;-142.93;100.00
10840;BME280;5473;42.706;23.328;2023-02-19T01:32:25;20471.59;;;-142.93;100.00
10840;BME280;5473;42.706;23.328;2023-02-19T01:34:51;19711.50;;;-142.93;100.00
10840;BME280;5473;42.706;23.328;2023-02-19T01:37:18;18951.53;;;-142.93;100.00
10840;BME280;5473;42.706;23.328;2023-02-19T01:39:46;17179.00;;;-142.93;100.00
10840;BME280;5473;42.706;23.328;2023-02-19T01:42:14;16925.88;;;-142.93;100.00
10840;BME280;5473;42.706;23.328;2023-02-19T01:47:52;15660.47;;;-142.93;100.00
10840;BME280;5473;42.706;23.328;2023-02-19T01:50:21;15407.44;;;-142.93;100.00
10840;BME280;5473;42.706;23.328;2023-02-19T01:52:48;15154.44;;;-142.93;100.00
10840;BME280;5473;42.706;23.328;2023-02-19T01:55:15;15154.44;;;-142.93;100.00
10840;BME280;5473;42.706;23.328;2023-02-19T01:57:45;14901.44;;;-142.93;100.00
10840;BME280;5473;42.706;23.328;2023-02-19T02:00:15;14395.53;;;-142.93;100.00
10840;BME280;5473;42.706;23.328;2023-02-19T02:02:47;14395.53;;;-142.93;100.00
10840;BME280;5473;42.706;23.328;2023-02-19T02:05:20;14142.59;;;-142.93;100.00
10840;BME280;5473;42.706;23.328;2023-02-19T02:07:50;12878.25;;;-142.93;100.00
10840;BME280;5473;42.706;23.328;2023-02-19T02:10:35;13131.09;;;-142.93;100.00
10840;BME280;5473;42.706;23.328;2023-02-19T02:13:02;13131.09;;;-142.93;100.00
10840;BME280;5473;42.706;23.328;2023-02-19T02:15:36;13131.09;;;-142.93;100.00
10840;BME280;5473;42.706;23.328;2023-02-19T02:18:13;12625.44;;;-142.93;100.00
10840;BME280;5473;42.706;23.328;2023-02-19T02:20:57;11867.13;;;-142.93;100.00
10840;BME280;5473;42.706;23.328;2023-02-19T02:23:38;12372.66;;;-142.93;100.00
10840;BME280;5473;42.706;23.328;2023-02-19T02:26:21;12625.44;;;-142.93;100.00
10840;BME280;5473;42.706;23.328;2023-02-19T02:31:57;11614.38;;;-142.93;100.00
10840;BME280;5473;42.706;23.328;2023-02-19T02:34:28;11361.66;;;-142.93;100.00
10840;BME280;5473;42.706;23.328;2023-02-19T02:36:56;11108.97;;;-142.93;100.00
10840;BME280;5473;42.706;23.328;2023-02-19T02:39:25;11108.97;;;-142.93;100.00
10840;BME280;5473;42.706;23.328;2023-02-19T02:41:55;10856.28;;;-142.93;100.00
10840;BME280;5473;42.706;23.328;2023-02-19T02:44:37;10603.63;;;-142.93;100.00
10840;BME280;5473;42.706;23.328;2023-02-19T02:47:06;10351.00;;;-142.93;100.00
10840;BME280;5473;42.706;23.328;2023-02-19T02:49:53;9845.78;;;-142.93;100.00
10840;BME280;5473;42.706;23.328;2023-02-19T02:52:31;10603.63;;;-142.93;100.00
10840;BME280;5473;42.706;23.328;2023-02-19T02:55:16;11361.66;;;-142.93;100.00
10840;BME280;5473;42.706;23.328;2023-02-19T02:57:44;11867.13;;;-142.93;100.00
10840;BME280;5473;42.706;23.328;2023-02-19T03:00:12;12372.66;;;-142.93;100.00
10840;BME280;5473;42.706;23.328;2023-02-19T03:02:41;12119.88;;;-142.93;100.00
10840;BME280;5473;42.706;23.328;2023-02-19T03:05:12;11867.13;;;-142.93;100.00
10840;BME280;5473;42.706;23.328;2023-02-19T03:08:04;11867.13;;;-142.93;100.00
10840;BME280;5473;42.706;23.328;2023-02-19T03:10:35;11361.66;;;-142.93;100.00
10840;BME280;5473;42.706;23.328;2023-02-19T03:13:04;11108.97;;;-142.93;100.00
10840;BME280;5473;42.706;23.328;2023-02-19T03:15:53;10603.63;;;-142.93;100.00
10840;BME280;5473;42.706;23.328;2023-02-19T03:18:41;11108.97;;;-142.93;100.00
10840;BME280;5473;42.706;23.328;2023-02-19T03:21:31;10856.28;;;-142.93;100.00
10840;BME280;5473;42.706;23.328;2023-02-19T03:24:01;10603.63;;;-142.93;100.00
10840;BME280;5473;42.706;23.328;2023-02-19T03:26:46;9845.78;;;-142.93;100.00
10840;BME280;5473;42.706;23.328;2023-02-19T03:29:19;10856.28;;;-142.93;100.00
10840;BME280;5473;42.706;23.328;2023-02-19T03:31:52;11614.38;;;-142.93;100.00
10840;BME280;5473;42.706;23.328;2023-02-19T03:34:24;11614.38;;;-142.93;100.00
10840;BME280;5473;42.706;23.328;2023-02-19T03:36:57;11614.38;;;-142.93;100.00
10840;BME280;5473;42.706;23.328;2023-02-19T03:39:26;11361.66;;;-142.93;100.00
10840;BME280;5473;42.706;23.328;2023-02-19T03:41:58;11108.97;;;-142.93;100.00
10840;BME280;5473;42.706;23.328;2023-02-19T03:44:36;10856.28;;;-142.93;100.00
10840;BME280;5473;42.706;23.328;2023-02-19T03:47:14;10351.00;;;-142.93;100.00
10840;BME280;5473;42.706;23.328;2023-02-19T03:49:48;9845.78;;;-142.93;100.00
10840;BME280;5473;42.706;23.328;2023-02-19T03:52:19;9340.63;;;-142.93;100.00
10840;BME280;5473;42.706;23.328;2023-02-19T03:54:53;8330.59;;;-142.93;100.00
10840;BME280;5473;42.706;23.328;2023-02-19T03:57:22;8330.59;;;-142.93;100.00
10840;BME280;5473;42.706;23.328;2023-02-19T03:59:54;8835.56;;;-142.93;100.00
10840;BME280;5473;42.706;23.328;2023-02-19T04:02:27;9088.09;;;-142.93;100.00
10840;BME280;5473;42.706;23.328;2023-02-19T04:05:02;9088.09;;;-142.93;100.00
10840;BME280;5473;42.706;23.328;2023-02-19T04:07:32;9088.09;;;-142.93;100.00
10840;BME280;5473;42.706;23.328;2023-02-19T04:10:02;8835.56;;;-142.93;100.00
10840;BME280;5473;42.706;23.328;2023-02-19T04:12:29;8330.59;;;-142.93;100.00
10840;BME280;5473;42.706;23.328;2023-02-19T04:14:58;8078.13;;;-142.93;100.00
10840;BME280;5473;42.706;23.328;2023-02-19T04:17:31;8078.13;;;-142.93;100.00
10840;BME280;5473;42.706;23.328;2023-02-19T04:20:04;8078.13;;;-142.93;100.00
10840;BME280;5473;42.706;23.328;2023-02-19T04:22:33;8078.13;;;-142.93;100.00
10840;BME280;5473;42.706;23.328;2023-02-19T04:25:00;8078.13;;;-142.93;100.00
10840;BME280;5473;42.706;23.328;2023-02-19T04:27:27;8078.13;;;-142.93;100.00
10840;BME280;5473;42.706;23.328;2023-02-19T04:29:53;8078.13;;;-142.93;100.00
10840;BME280;5473;42.706;23.328;2023-02-19T04:32:20;7825.69;;;-142.93;100.00
10840;BME280;5473;42.706;23.328;2023-02-19T04:34:47;7825.69;;;-142.93;100.00
10840;BME280;5473;42.706;23.328;2023-02-19T04:37:15;7320.84;;;-142.93;100.00
10840;BME280;5473;42.706;23.328;2023-02-19T04:39:42;6816.09;;;-142.93;100.00
10840;BME280;5473;42.706;23.328;2023-02-19T04:42:09;6563.75;;;-142.93;100.00
10840;BME280;5473;42.706;23.328;2023-02-19T04:44:36;6059.09;;;-142.93;100.00
10840;BME280;5473;42.706;23.328;2023-02-19T04:47:03;5050.06;;;-142.93;100.00
10840;BME280;5473;42.706;23.328;2023-02-19T04:49:30;4545.66;;;-142.93;100.00
10840;BME280;5473;42.706;23.328;2023-02-19T04:51:56;4293.50;;;-142.93;100.00
10840;BME280;5473;42.706;23.328;2023-02-19T04:54:25;4545.66;;;-142.93;100.00
10840;BME280;5473;42.706;23.328;2023-02-19T04:56:51;5554.56;;;-142.93;100.00
10840;BME280;5473;42.706;23.328;2023-02-19T04:59:18;6563.75;;;-142.93;100.00
10840;BME280;5473;42.706;23.328;2023-02-19T05:01:45;6563.75;;;-142.93;100.00
10840;BME280;5473;42.706;23.328;2023-02-19T05:04:12;6311.41;;;-142.93;100.00
10840;BME280;5473;42.706;23.328;2023-02-19T05:06:38;6059.09;;;-142.93;100.00
10840;BME280;5473;42.706;23.328;2023-02-19T05:09:05;6059.09;;;-142.93;100.00
10840;BME280;5473;42.706;23.328;2023-02-19T05:11:34;6059.09;;;-142.93;100.00
10840;BME280;5473;42.706;23.328;2023-02-19T05:14:01;5806.81;;;-142.93;100.00
10840;BME280;5473;42.706;23.328;2023-02-19T05:16:28;5806.81;;;-142.93;100.00
10840;BME280;5473;42.706;23.328;2023-02-19T05:18:55;6563.75;;;-142.93;100.00
10840;BME280;5473;42.706;23.328;2023-02-19T05:21:21;6816.09;;;-142.93;100.00
10840;BME280;5473;42.706;23.328;2023-02-19T05:23:48;6311.41;;;-142.93;100.00
10840;BME280;5473;42.706;23.328;2023-02-19T05:26:17;5806.81;;;-142.93;100.00
10840;BME280;5473;42.706;23.328;2023-02-19T05:28:47;5806.81;;;-142.93;100.00
10840;BME280;5473;42.706;23.328;2023-02-19T05:31:14;5554.56;;;-142.93;100.00
10840;BME280;5473;42.706;23.328;2023-02-19T05:33:41;5302.28;;;-142.93;100.00
10840;BME280;5473;42.706;23.328;2023-02-19T05:36:11;5050.06;;;-142.93;100.00
10840;BME280;5473;42.706;23.328;2023-02-19T05:38:39;5050.06;;;-142.93;100.00
10840;BME280;5473;42.706;23.328;2023-02-19T05:41:10;5050.06;;;-142.93;100.00
10840;BME280;5473;42.706;23.328;2023-02-19T05:43:37;4797.84;;;-142.93;100.00
10840;BME280;5473;42.706;23.328;2023-02-19T05:46:06;4797.84;;;-142.93;100.00
10840;BME280;5473;42.706;23.328;2023-02-19T05:48:33;5554.56;;;-142.93;100.00
10840;BME280;5473;42.706;23.328;2023-02-19T05:51:01;6311.41;;;-142.93;100.00
10840;BME280;5473;42.706;23.328;2023-02-19T05:53:28;8330.59;;;-142.93;100.00
10840;BME280;5473;42.706;23.328;2023-02-19T05:55:55;11361.66;;;-142.93;100.00
10840;BME280;5473;42.706;23.328;2023-02-19T05:58:22;16925.88;;;-142.93;100.00
10840;BME280;5473;42.706;23.328;2023-02-19T06:00:49;21231.91;;;-142.93;100.00
10840;BME280;5473;42.706;23.328;2023-02-19T06:03:17;28231.19;;;-142.93;100.00
10840;BME280;5473;42.706;23.328;2023-02-19T06:05:44;32031.34;;;-142.93;100.00
10840;BME280;5473;42.706;23.328;2023-02-19T06:08:12;34718.28;;;-142.93;100.00
10840;BME280;5473;42.706;23.328;2023-02-19T06:10:39;36440.50;;;-142.93;100.00
10840;BME280;5473;42.706;23.328;2023-02-19T06:13:06;36786.66;;;-142.93;100.00
10840;BME280;5473;42.706;23.328;2023-02-19T06:15:34;37238.28;;;-142.93;100.00
10840;BME280;5473;42.706;23.328;2023-02-19T06:18:01;37652.16;;;-142.93;100.00
10840;BME280;5473;42.706;23.328;2023-02-19T06:20:29;37817.31;;;-142.93;100.00
10840;BME280;5473;42.706;23.328;2023-02-19T06:22:57;37817.31;;;-142.93;100.00
10840;BME280;5473;42.706;23.328;2023-02-19T06:25:24;37886.97;;;-142.93;100.00
10840;BME280;5473;42.706;23.328;2023-02-19T06:27:50;37869.06;;;-142.93;100.00
10840;BME280;5473;42.706;23.328;2023-02-19T06:30:17;37847.16;;;-142.93;100.00
10840;BME280;5473;42.706;23.328;2023-02-19T06:32:44;37908.84;;;-142.93;100.00
10840;BME280;5473;42.706;23.328;2023-02-19T06:35:11;37900.91;;;-142.93;100.00
10840;BME280;5473;42.706;23.328;2023-02-19T06:37:39;37908.84;;;-142.93;100.00
10840;BME280;5473;42.706;23.328;2023-02-19T06:40:06;37926.78;;;-142.93;100.00
10840;BME280;5473;42.706;23.328;2023-02-19T06:42:33;37900.91;;;-142.93;100.00
10840;BME280;5473;42.706;23.328;2023-02-19T06:45:00;37926.78;;;-142.93;100.00
10840;BME280;5473;42.706;23.328;2023-02-19T06:47:30;37910.84;;;-142.93;100.00
10840;BME280;5473;42.706;23.328;2023-02-19T06:49:56;37908.84;;;-142.93;100.00
10840;BME280;5473;42.706;23.328;2023-02-19T06:52:23;37879.00;;;-142.93;100.00
10840;BME280;5473;42.706;23.328;2023-02-19T06:54:51;37877.00;;;-142.93;100.00
10840;BME280;5473;42.706;23.328;2023-02-19T06:57:18;37857.13;;;-142.93;100.00
10840;BME280;5473;42.706;23.328;2023-02-19T06:59:45;37831.25;;;-142.93;100.00
10840;BME280;5473;42.706;23.328;2023-02-19T07:02:12;37789.47;;;-142.93;100.00
10840;BME280;5473;42.706;23.328;2023-02-19T07:04:39;37775.53;;;-142.93;100.00
10840;BME280;5473;42.706;23.328;2023-02-19T07:07:05;37751.66;;;-142.93;100.00
10840;BME280;5473;42.706;23.328;2023-02-19T07:09:32;37648.16;;;-142.93;99.77
10840;BME280;5473;42.706;23.328;2023-02-19T07:12:00;37610.34;;;-142.93;95.04
10840;BME280;5473;42.706;23.328;2023-02-19T07:14:27;37520.81;;;-142.93;89.83
10840;BME280;5473;42.706;23.328;2023-02-19T07:16:55;37520.81;;;-142.93;84.94
10840;BME280;5473;42.706;23.328;2023-02-19T07:19:21;37479.03;;;-142.93;81.96
10840;BME280;5473;42.706;23.328;2023-02-19T07:21:48;37475.06;;;-142.93;79.06
10840;BME280;5473;42.706;23.328;2023-02-19T07:24:15;37433.25;;;-142.93;76.08
10840;BME280;5473;42.706;23.328;2023-02-19T07:26:43;37437.25;;;-142.93;74.77
10840;BME280;5473;42.706;23.328;2023-02-19T07:29:11;37433.25;;;-142.93;73.87
10840;BME280;5473;42.706;23.328;2023-02-19T07:31:38;37417.34;;;-142.93;71.40
10840;BME280;5473;42.706;23.328;2023-02-19T07:34:06;37371.59;;;-142.93;68.92
10840;BME280;5473;42.706;23.328;2023-02-19T07:36:33;37345.72;;;-142.93;65.71
10840;BME280;5473;42.706;23.328;2023-02-19T07:38:59;37309.91;;;-142.93;64.24
10840;BME280;5473;42.706;23.328;2023-02-19T07:41:26;37333.78;;;-142.93;62.18
10840;BME280;5473;42.706;23.328;2023-02-19T07:43:53;37305.91;;;-142.93;61.85
10840;BME280;5473;42.706;23.328;2023-02-19T07:46:22;37307.91;;;-142.93;60.68
10840;BME280;5473;42.706;23.328;2023-02-19T07:48:48;37311.88;;;-142.93;59.88
10840;BME280;5473;42.706;23.328;2023-02-19T07:51:17;37483.00;;;-142.93;59.82
10840;BME280;5473;42.706;23.328;2023-02-19T07:53:45;37309.91;;;-142.93;59.91
10840;BME280;5473;42.706;23.328;2023-02-19T07:56:12;37311.88;;;-142.93;57.45
10840;BME280;5473;42.706;23.328;2023-02-19T07:58:40;37272.09;;;-142.93;56.33
10840;BME280;5473;42.706;23.328;2023-02-19T08:01:08;37242.25;;;-142.93;54.04
10840;BME280;5473;42.706;23.328;2023-02-19T08:03:37;37254.19;;;-142.93;54.29
10840;BME280;5473;42.706;23.328;2023-02-19T08:06:04;37240.25;;;-142.93;54.93
10840;BME280;5473;42.706;23.328;2023-02-19T08:08:31;37286.03;;;-142.93;53.67
10840;BME280;5473;42.706;23.328;2023-02-19T08:11:01;37351.69;;;-142.93;55.21
10840;BME280;5473;42.706;23.328;2023-02-19T08:13:47;37409.38;;;-142.93;56.52
10840;BME280;5473;42.706;23.328;2023-02-19T08:16:15;37475.06;;;-142.93;57.92
10840;BME280;5473;42.706;23.328;2023-02-19T08:18:46;37479.03;;;-142.93;59.77
10840;BME280;5473;42.706;23.328;2023-02-19T08:21:13;37415.34;;;-142.93;58.54
10840;BME280;5473;42.706;23.328;2023-02-19T08:23:42;37365.63;;;-142.93;57.43
10840;BME280;5473;42.706;23.328;2023-02-19T08:26:10;37363.63;;;-142.93;55.82
10840;BME280;5473;42.706;23.328;2023-02-19T08:28:37;37365.63;;;-142.93;56.58
10840;BME280;5473;42.706;23.328;2023-02-19T08:31:05;37367.59;;;-142.93;56.12
10840;BME280;5473;42.706;23.328;2023-02-19T08:33:33;37393.47;;;-142.93;56.37
10840;BME280;5473;42.706;23.328;2023-02-19T08:36:03;37465.09;;;-142.93;58.95
10840;BME280;5473;42.706;23.328;2023-02-19T08:38:31;37391.47;;;-142.93;58.66
10840;BME280;5473;42.706;23.328;2023-02-19T08:40:59;37437.25;;;-142.93;58.89
10840;BME280;5473;42.706;23.328;2023-02-19T08:43:26;37409.38;;;-142.93;59.44
10840;BME280;5473;42.706;23.328;2023-02-19T08:45:53;37395.47;;;-142.93;59.03
10840;BME280;5473;42.706;23.328;2023-02-19T08:48:20;37399.44;;;-142.93;56.32
10840;BME280;5473;42.706;23.328;2023-02-19T08:50:53;37345.72;;;-142.93;58.38
10840;BME280;5473;42.706;23.328;2023-02-19T08:53:21;37321.84;;;-142.93;55.24
10840;BME280;5473;42.706;23.328;2023-02-19T08:55:48;37295.97;;;-142.93;53.65
10840;BME280;5473;42.706;23.328;2023-02-19T08:58:15;37347.72;;;-142.93;55.72
10840;BME280;5473;42.706;23.328;2023-02-19T09:00:42;37210.41;;;-142.93;52.43
10840;BME280;5473;42.706;23.328;2023-02-19T09:03:09;37124.84;;;-142.93;49.54
10840;BME280;5473;42.706;23.328;2023-02-19T09:05:36;37110.94;;;-142.93;49.54
10840;BME280;5473;42.706;23.328;2023-02-19T09:08:04;37148.72;;;-142.93;49.64
10840;BME280;5473;42.706;23.328;2023-02-19T09:10:32;37043.28;;;-142.93;47.97
10840;BME280;5473;42.706;23.328;2023-02-19T09:12:58;37049.25;;;-142.93;47.90
10840;BME280;5473;42.706;23.328;2023-02-19T09:15:26;36947.78;;;-142.93;46.73
10840;BME280;5473;42.706;23.328;2023-02-19T09:17:54;36852.28;;;-142.93;44.77
10840;BME280;5473;42.706;23.328;2023-02-19T09:20:20;36858.25;;;-142.93;44.36
10840;BME280;5473;42.706;23.328;2023-02-19T09:22:47;37043.28;;;-142.93;47.09
10840;BME280;5473;42.706;23.328;2023-02-19T09:25:14;37041.28;;;-142.93;47.01
10840;BME280;5473;42.706;23.328;2023-02-19T09:27:42;37035.31;;;-142.93;46.52
10840;BME280;5473;42.706;23.328;2023-02-19T09:30:09;36929.88;;;-142.93;45.18
10840;BME280;5473;42.706;23.328;2023-02-19T09:32:36;36904.03;;;-142.93;44.02
10840;BME280;5473;42.706;23.328;2023-02-19T09:35:03;36987.59;;;-142.93;45.26
10840;BME280;5473;42.706;23.328;2023-02-19T09:37:30;37049.25;;;-142.93;46.36
10840;BME280;5473;42.706;23.328;2023-02-19T09:39:56;37065.19;;;-142.93;47.10
10840;BME280;5473;42.706;23.328;2023-02-19T09:42:26;37140.78;;;-142.93;49.03
10840;BME280;5473;42.706;23.328;2023-02-19T09:44:57;37091.03;;;-142.93;48.62
10840;BME280;5473;42.706;23.328;2023-02-19T09:47:26;37025.38;;;-142.93;47.15
10840;BME280;5473;42.706;23.328;2023-02-19T09:49:54;37007.47;;;-142.93;46.30
10840;BME280;5473;42.706;23.328;2023-02-19T09:52:30;36947.78;;;-142.93;45.94
10840;BME280;5473;42.706;23.328;2023-02-19T09:55:00;36975.66;;;-142.93;46.36
10840;BME280;5473;42.706;23.328;2023-02-19T09:57:29;36963.72;;;-142.93;46.95
10840;BME280;5473;42.706;23.328;2023-02-19T10:00:03;36925.91;;;-142.93;45.38
10840;BME280;5473;42.706;23.328;2023-02-19T10:02:31;36999.53;;;-142.93;45.47
10840;BME280;5473;42.706;23.328;2023-02-19T10:04:58;36999.53;;;-142.93;44.86
10840;BME280;5473;42.706;23.328;2023-02-19T10:07:34;37128.84;;;-142.93;46.82
10840;BME280;5473;42.706;23.328;2023-02-19T10:10:20;37114.91;;;-142.93;47.04
10840;BME280;5473;42.706;23.328;2023-02-19T10:12:51;37166.66;;;-142.93;47.14
10840;BME280;5473;42.706;23.328;2023-02-19T10:15:24;37021.41;;;-142.93;44.67
10840;BME280;5473;42.706;23.328;2023-02-19T10:17:53;37043.28;;;-142.93;43.75
10840;BME280;5473;42.706;23.328;2023-02-19T10:20:21;37106.94;;;-142.93;45.03
10840;BME280;5473;42.706;23.328;2023-02-19T10:22:57;37202.47;;;-142.93;45.64
10840;BME280;5473;42.706;23.328;2023-02-19T10:25:25;37071.13;;;-142.93;43.72
10840;BME280;5473;42.706;23.328;2023-02-19T10:27:52;37081.09;;;-142.93;43.43
10840;BME280;5473;42.706;23.328;2023-02-19T10:30:22;37108.94;;;-142.93;43.77
10840;BME280;5473;42.706;23.328;2023-02-19T10:33:03;37025.38;;;-142.93;42.31
10840;BME280;5473;42.706;23.328;2023-02-19T10:35:34;37110.94;;;-142.93;42.55
10840;BME280;5473;42.706;23.328;2023-02-19T10:38:01;37108.94;;;-142.93;43.18
10840;BME280;5473;42.706;23.328;2023-02-19T10:40:31;37206.44;;;-142.93;43.81
10840;BME280;5473;42.706;23.328;2023-02-19T10:43:02;37246.22;;;-142.93;46.02
10840;BME280;5473;42.706;23.328;2023-02-19T10:45:34;37222.34;;;-142.93;44.86
10840;BME280;5473;42.706;23.328;2023-02-19T10:48:04;37150.72;;;-142.93;43.74
10840;BME280;5473;42.706;23.328;2023-02-19T10:50:35;37071.13;;;-142.93;42.85
10840;BME280;5473;42.706;23.328;2023-02-19T10:53:04;37172.63;;;-142.93;42.48
10840;BME280;5473;42.706;23.328;2023-02-19T10:55:33;37061.19;;;-142.93;42.10
10840;BME280;5473;42.706;23.328;2023-02-19T10:58:20;37051.25;;;-142.93;40.69
10840;BME280;5473;42.706;23.328;2023-02-19T11:01:08;37071.13;;;-142.93;41.32
10840;BME280;5473;42.706;23.328;2023-02-19T11:03:36;37077.09;;;-142.93;41.06
10840;BME280;5473;42.706;23.328;2023-02-19T11:06:04;37116.91;;;-142.93;41.30
10840;BME280;5473;42.706;23.328;2023-02-19T11:08:45;37073.13;;;-142.93;41.28
10840;BME280;5473;42.706;23.328;2023-02-19T11:11:22;37268.13;;;-142.93;43.41
10840;BME280;5473;42.706;23.328;2023-02-19T11:13:49;37218.38;;;-142.93;42.90
10840;BME280;5473;42.706;23.328;2023-02-19T11:16:17;37204.44;;;-142.93;42.40
10840;BME280;5473;42.706;23.328;2023-02-19T11:18:52;37182.56;;;-142.93;42.79
10840;BME280;5473;42.706;23.328;2023-02-19T11:21:25;37188.53;;;-142.93;43.40
10840;BME280;5473;42.706;23.328;2023-02-19T11:23:57;37234.28;;;-142.93;43.63
10840;BME280;5473;42.706;23.328;2023-02-19T11:26:26;37204.44;;;-142.93;43.69
10840;BME280;5473;42.706;23.328;2023-02-19T11:28:57;37268.13;;;-142.93;44.13
10840;BME280;5473;42.706;23.328;2023-02-19T11:31:28;37248.22;;;-142.93;44.47
10840;BME280;5473;42.706;23.328;2023-02-19T11:33:56;37206.44;;;-142.93;43.01
10840;BME280;5473;42.706;23.328;2023-02-19T11:36:30;37015.44;;;-142.93;40.84
10840;BME280;5473;42.706;23.328;2023-02-19T11:38:58;36977.63;;;-142.93;39.97
10840;BME280;5473;42.706;23.328;2023-02-19T11:44:36;37083.06;;;-142.93;39.15
10840;BME280;5473;42.706;23.328;2023-02-19T11:47:42;37001.50;;;-142.93;38.07
10840;BME280;5473;42.706;23.328;2023-02-19T11:50:18;36957.75;;;-142.93;37.34
10840;BME280;5473;42.706;23.328;2023-02-19T11:52:55;37031.34;;;-142.93;37.47
10840;BME280;5473;42.706;23.328;2023-02-19T11:55:41;36878.16;;;-142.93;36.47
10840;BME280;5473;42.706;23.328;2023-02-19T11:58:22;36784.66;;;-142.93;35.60
10840;BME280;5473;42.706;23.328;2023-02-19T12:01:02;36913.97;;;-142.93;35.44
10840;BME280;5473;42.706;23.328;2023-02-19T12:03:48;36969.69;;;-142.93;35.64
10840;BME280;5473;42.706;23.328;2023-02-19T12:06:29;36854.28;;;-142.93;35.14
10840;BME280;5473;42.706;23.328;2023-02-19T12:09:18;36868.22;;;-142.93;33.93
10840;BME280;5473;42.706;23.328;2023-02-19T12:11:55;36810.50;;;-142.93;34.19
10840;BME280;5473;42.706;23.328;2023-02-19T12:14:41;36860.25;;;-142.93;34.04
10840;BME280;5473;42.706;23.328;2023-02-19T12:17:16;36850.31;;;-142.93;34.11
10840;BME280;5473;42.706;23.328;2023-02-19T12:20:00;36844.34;;;-142.93;33.66
10840;BME280;5473;42.706;23.328;2023-02-19T12:22:30;36870.19;;;-142.93;34.25
10840;BME280;5473;42.706;23.328;2023-02-19T12:25:24;36927.91;;;-142.93;34.04
10840;BME280;5473;42.706;23.328;2023-02-19T12:28:06;36971.66;;;-142.93;34.90
10840;BME280;5473;42.706;23.328;2023-02-19T12:30:57;36979.63;;;-142.93;34.81
10840;BME280;5473;42.706;23.328;2023-02-19T12:36:30;37138.78;;;-142.93;35.61
10840;BME280;5473;42.706;23.328;2023-02-19T12:39:06;37236.28;;;-142.93;36.31
10840;BME280;5473;42.706;23.328;2023-02-19T12:41:41;37258.16;;;-142.93;37.07
10840;BME280;5473;42.706;23.328;2023-02-19T12:44:13;37286.03;;;-142.93;37.15
10840;BME280;5473;42.706;23.328;2023-02-19T12:46:46;37311.88;;;-142.93;37.22
10840;BME280;5473;42.706;23.328;2023-02-19T12:49:19;37429.28;;;-142.93;38.55
10840;BME280;5473;42.706;23.328;2023-02-19T12:51:54;37335.75;;;-142.93;39.00
10840;BME280;5473;42.706;23.328;2023-02-19T12:54:26;37353.69;;;-142.93;37.61
10840;BME280;5473;42.706;23.328;2023-02-19T12:56:58;37299.94;;;-142.93;37.38
10840;BME280;5473;42.706;23.328;2023-02-19T12:59:31;37345.72;;;-142.93;38.19
10840;BME280;5473;42.706;23.328;2023-02-19T13:02:03;37401.44;;;-142.93;38.78
10840;BME280;5473;42.706;23.328;2023-02-19T13:04:41;37341.72;;;-142.93;39.00